sensor_id;sensor_type;location;lat;lon;timestamp;pressure;altitude;pressure_sealevel;temperature;humidity
26531;BME280;14201;43.188;24.160;2022-09-09T00:00:38;99569.13;;;19.82;74.08
26531;BME280;14201;43.188;24.160;2022-09-09T00:05:37;99563.84;;;19.83;73.45
26531;BME280;14201;43.188;24.160;2022-09-09T00:08:04;99568.22;;;19.78;74.16
26531;BME280;14201;43.188;24.160;2022-09-09T00:10:30;99560.31;;;19.86;74.95
26531;BME280;14201;43.188;24.160;2022-09-09T00:18:29;99568.28;;;19.89;75.02
26531;BME280;14201;43.188;24.160;2022-09-09T00:21:06;99572.66;;;19.89;74.55
26531;BME280;14201;43.188;24.160;2022-09-09T00:23:37;99558.53;;;19.79;74.41
26531;BME280;14201;43.188;24.160;2022-09-09T00:28:32;99561.09;;;19.71;73.62
26531;BME280;14201;43.188;24.160;2022-09-09T00:31:04;99562.91;;;19.72;74.88
26531;BME280;14201;43.188;24.160;2022-09-09T00:33:34;99551.41;;;19.67;75.28
26531;BME280;14201;43.188;24.160;2022-09-09T00:35:59;99542.59;;;19.70;75.42
26531;BME280;14201;43.188;24.160;2022-09-09T00:38:36;99554.13;;;19.72;75.31
26531;BME280;14201;43.188;24.160;2022-09-09T00:48:30;99525.03;;;19.81;74.30
26531;BME280;14201;43.188;24.160;2022-09-09T00:51:05;99524.16;;;19.77;73.05
26531;BME280;14201;43.188;24.160;2022-09-09T00:56:24;99512.72;;;19.74;73.46
26531;BME280;14201;43.188;24.160;2022-09-09T00:59:00;99510.00;;;19.67;72.85
26531;BME280;14201;43.188;24.160;2022-09-09T01:01:32;99509.09;;;19.59;73.84
26531;BME280;14201;43.188;24.160;2022-09-09T01:03:57;99518.81;;;19.62;73.74
26531;BME280;14201;43.188;24.160;2022-09-09T01:08:57;99516.16;;;19.62;74.99
26531;BME280;14201;43.188;24.160;2022-09-09T01:11:26;99511.72;;;19.58;75.14
26531;BME280;14201;43.188;24.160;2022-09-09T01:14:00;99510.88;;;19.66;75.01
26531;BME280;14201;43.188;24.160;2022-09-09T01:16:29;99518.81;;;19.70;74.76
26531;BME280;14201;43.188;24.160;2022-09-09T01:18:55;99521.53;;;19.76;74.55
26531;BME280;14201;43.188;24.160;2022-09-09T01:24:10;99516.16;;;19.70;73.44
26531;BME280;14201;43.188;24.160;2022-09-09T01:26:39;99513.56;;;19.73;72.86
26531;BME280;14201;43.188;24.160;2022-09-09T01:29:10;99527.63;;;19.68;72.78
26531;BME280;14201;43.188;24.160;2022-09-09T01:31:41;99520.56;;;19.64;72.41
26531;BME280;14201;43.188;24.160;2022-09-09T01:34:10;99520.50;;;19.49;72.98
26531;BME280;14201;43.188;24.160;2022-09-09T01:36:46;99530.19;;;19.47;73.30
26531;BME280;14201;43.188;24.160;2022-09-09T01:39:16;99525.75;;;19.41;73.93
26531;BME280;14201;43.188;24.160;2022-09-09T01:41:42;99521.31;;;19.36;75.02
26531;BME280;14201;43.188;24.160;2022-09-09T01:44:08;99530.13;;;19.33;75.87
26531;BME280;14201;43.188;24.160;2022-09-09T01:46:33;99522.16;;;19.28;75.92
26531;BME280;14201;43.188;24.160;2022-09-09T01:48:59;99523.03;;;19.31;75.57
26531;BME280;14201;43.188;24.160;2022-09-09T01:51:26;99515.97;;;19.25;75.79
26531;BME280;14201;43.188;24.160;2022-09-09T01:53:52;99523.03;;;19.21;76.01
26531;BME280;14201;43.188;24.160;2022-09-09T01:56:33;99532.69;;;19.22;76.10
26531;BME280;14201;43.188;24.160;2022-09-09T02:04:30;99532.75;;;19.36;75.82
26531;BME280;14201;43.188;24.160;2022-09-09T02:06:57;99528.34;;;19.31;75.05
26531;BME280;14201;43.188;24.160;2022-09-09T02:09:23;99537.97;;;19.19;74.20
26531;BME280;14201;43.188;24.160;2022-09-09T02:11:49;99526.50;;;19.17;74.63
26531;BME280;14201;43.188;24.160;2022-09-09T02:14:21;99530.00;;;19.10;75.18
26531;BME280;14201;43.188;24.160;2022-09-09T02:16:54;99529.97;;;19.04;75.78
26531;BME280;14201;43.188;24.160;2022-09-09T02:21:50;99532.59;;;19.02;76.87
26531;BME280;14201;43.188;24.160;2022-09-09T02:24:17;99530.84;;;19.06;75.64
26531;BME280;14201;43.188;24.160;2022-09-09T02:26:42;99530.00;;;19.10;75.12
26531;BME280;14201;43.188;24.160;2022-09-09T02:29:11;99540.53;;;19.04;75.71
26531;BME280;14201;43.188;24.160;2022-09-09T02:31:38;99538.75;;;19.03;75.85
26531;BME280;14201;43.188;24.160;2022-09-09T02:34:04;99529.03;;;18.94;75.35
26531;BME280;14201;43.188;24.160;2022-09-09T02:36:32;99535.97;;;18.83;76.10
26531;BME280;14201;43.188;24.160;2022-09-09T02:38:59;99540.38;;;18.85;76.66
26531;BME280;14201;43.188;24.160;2022-09-09T02:41:30;99535.03;;;18.79;77.60
26531;BME280;14201;43.188;24.160;2022-09-09T02:43:56;99536.72;;;18.73;77.65
26531;BME280;14201;43.188;24.160;2022-09-09T02:49:10;99534.97;;;18.70;77.66
26531;BME280;14201;43.188;24.160;2022-09-09T02:54:27;99543.69;;;18.63;77.72
26531;BME280;14201;43.188;24.160;2022-09-09T02:56:56;99542.81;;;18.62;77.57
26531;BME280;14201;43.188;24.160;2022-09-09T02:59:27;99531.25;;;18.46;77.33
26531;BME280;14201;43.188;24.160;2022-09-09T03:01:52;99530.44;;;18.52;77.40
26531;BME280;14201;43.188;24.160;2022-09-09T03:04:18;99534.84;;;18.52;77.68
26531;BME280;14201;43.188;24.160;2022-09-09T03:06:44;99531.34;;;18.56;77.89
26531;BME280;14201;43.188;24.160;2022-09-09T03:09:09;99536.59;;;18.54;77.77
26531;BME280;14201;43.188;24.160;2022-09-09T03:11:35;99540.16;;;18.58;76.59
26531;BME280;14201;43.188;24.160;2022-09-09T03:14:01;99539.25;;;18.59;76.59
26531;BME280;14201;43.188;24.160;2022-09-09T03:16:26;99535.72;;;18.54;76.94
26531;BME280;14201;43.188;24.160;2022-09-09T03:18:52;99540.91;;;18.47;77.76
26531;BME280;14201;43.188;24.160;2022-09-09T03:21:17;99537.34;;;18.39;78.27
26531;BME280;14201;43.188;24.160;2022-09-09T03:23:43;99540.84;;;18.37;78.51
26531;BME280;14201;43.188;24.160;2022-09-09T03:26:10;99539.09;;;18.39;78.60
26531;BME280;14201;43.188;24.160;2022-09-09T03:28:35;99535.47;;;18.24;79.61
26531;BME280;14201;43.188;24.160;2022-09-09T03:31:04;99543.31;;;18.20;79.49
26531;BME280;14201;43.188;24.160;2022-09-09T03:33:30;99534.56;;;18.21;79.56
26531;BME280;14201;43.188;24.160;2022-09-09T03:35:56;99535.38;;;18.18;80.10
26531;BME280;14201;43.188;24.160;2022-09-09T03:38:22;99534.53;;;18.19;79.94
26531;BME280;14201;43.188;24.160;2022-09-09T03:40:49;99543.41;;;18.29;79.24
26531;BME280;14201;43.188;24.160;2022-09-09T03:43:14;99532.88;;;18.30;79.10
26531;BME280;14201;43.188;24.160;2022-09-09T03:45:44;99544.34;;;18.34;78.96
26531;BME280;14201;43.188;24.160;2022-09-09T03:48:11;99541.75;;;18.40;78.89
26531;BME280;14201;43.188;24.160;2022-09-09T03:50:36;99544.50;;;18.49;78.19
26531;BME280;14201;43.188;24.160;2022-09-09T03:53:02;99537.31;;;18.38;77.62
26531;BME280;14201;43.188;24.160;2022-09-09T03:55:27;99550.53;;;18.36;77.96
26531;BME280;14201;43.188;24.160;2022-09-09T03:57:53;99538.28;;;18.44;77.70
26531;BME280;14201;43.188;24.160;2022-09-09T04:00:18;99543.47;;;18.35;78.75
26531;BME280;14201;43.188;24.160;2022-09-09T04:02:43;99546.06;;;18.30;79.21
26531;BME280;14201;43.188;24.160;2022-09-09T04:05:09;99541.78;;;18.43;78.30
26531;BME280;14201;43.188;24.160;2022-09-09T04:07:34;99542.63;;;18.39;78.21
26531;BME280;14201;43.188;24.160;2022-09-09T04:10:00;99540.81;;;18.32;78.54
26531;BME280;14201;43.188;24.160;2022-09-09T04:12:25;99547.88;;;18.35;78.62
26531;BME280;14201;43.188;24.160;2022-09-09T04:14:51;99540.84;;;18.37;78.66
26531;BME280;14201;43.188;24.160;2022-09-09T04:17:16;99541.75;;;18.39;78.32
26531;BME280;14201;43.188;24.160;2022-09-09T04:19:42;99544.41;;;18.40;78.30
26531;BME280;14201;43.188;24.160;2022-09-09T04:22:07;99545.28;;;18.42;78.96
26531;BME280;14201;43.188;24.160;2022-09-09T04:24:33;99550.56;;;18.42;79.20
26531;BME280;14201;43.188;24.160;2022-09-09T04:26:58;99536.59;;;18.53;78.84
26531;BME280;14201;43.188;24.160;2022-09-09T04:29:24;99549.03;;;18.69;77.81
26531;BME280;14201;43.188;24.160;2022-09-09T04:31:49;99544.66;;;18.69;77.35
26531;BME280;14201;43.188;24.160;2022-09-09T04:34:14;99559.59;;;18.67;77.92
26531;BME280;14201;43.188;24.160;2022-09-09T04:36:40;99558.72;;;18.70;77.88
26531;BME280;14201;43.188;24.160;2022-09-09T04:39:05;99557.06;;;18.80;77.00
26531;BME280;14201;43.188;24.160;2022-09-09T04:41:31;99565.84;;;18.79;77.36
26531;BME280;14201;43.188;24.160;2022-09-09T04:43:56;99565.94;;;18.86;76.99
26531;BME280;14201;43.188;24.160;2022-09-09T04:46:22;99566.03;;;19.02;76.03
26531;BME280;14201;43.188;24.160;2022-09-09T04:48:48;99568.72;;;19.11;75.88
26531;BME280;14201;43.188;24.160;2022-09-09T04:51:14;99559.06;;;19.16;75.60
26531;BME280;14201;43.188;24.160;2022-09-09T04:53:40;99557.44;;;19.38;74.81
26531;BME280;14201;43.188;24.160;2022-09-09T04:56:06;99558.34;;;19.45;75.39
26531;BME280;14201;43.188;24.160;2022-09-09T04:58:32;99555.72;;;19.50;76.05
26531;BME280;14201;43.188;24.160;2022-09-09T05:01:08;99555.81;;;19.62;75.40
26531;BME280;14201;43.188;24.160;2022-09-09T05:03:33;99561.19;;;19.82;75.33
26531;BME280;14201;43.188;24.160;2022-09-09T05:06:05;99548.03;;;20.05;74.93
26531;BME280;14201;43.188;24.160;2022-09-09T05:08:31;99538.38;;;20.16;74.90
26531;BME280;14201;43.188;24.160;2022-09-09T05:10:57;99532.22;;;20.36;74.21
26531;BME280;14201;43.188;24.160;2022-09-09T05:13:24;99522.53;;;20.52;74.52
26531;BME280;14201;43.188;24.160;2022-09-09T05:15:53;99515.50;;;20.63;74.00
26531;BME280;14201;43.188;24.160;2022-09-09T05:18:18;99521.66;;;20.80;73.72
26531;BME280;14201;43.188;24.160;2022-09-09T05:20:44;99536.63;;;21.01;73.98
26531;BME280;14201;43.188;24.160;2022-09-09T05:23:09;99540.13;;;21.17;74.29
26531;BME280;14201;43.188;24.160;2022-09-09T05:25:37;99533.84;;;21.43;73.51
26531;BME280;14201;43.188;24.160;2022-09-09T05:28:03;99524.94;;;21.67;71.56
26531;BME280;14201;43.188;24.160;2022-09-09T05:30:28;99534.38;;;22.17;69.04
26531;BME280;14201;43.188;24.160;2022-09-09T05:32:56;99530.66;;;22.48;67.53
26531;BME280;14201;43.188;24.160;2022-09-09T05:35:22;99537.47;;;22.81;66.87
26531;BME280;14201;43.188;24.160;2022-09-09T05:37:48;99543.50;;;22.97;67.52
26531;BME280;14201;43.188;24.160;2022-09-09T05:40:13;99534.47;;;23.16;69.08
26531;BME280;14201;43.188;24.160;2022-09-09T05:42:39;99540.53;;;23.32;67.93
26531;BME280;14201;43.188;24.160;2022-09-09T05:45:06;99526.22;;;23.43;65.32
26531;BME280;14201;43.188;24.160;2022-09-09T05:47:33;99540.19;;;23.58;66.96
26531;BME280;14201;43.188;24.160;2022-09-09T05:49:58;99534.69;;;23.72;65.26
26531;BME280;14201;43.188;24.160;2022-09-09T05:52:24;99534.41;;;23.97;63.71
26531;BME280;14201;43.188;24.160;2022-09-09T05:54:51;99531.41;;;24.22;61.71
26531;BME280;14201;43.188;24.160;2022-09-09T05:57:17;99532.78;;;24.46;63.25
26531;BME280;14201;43.188;24.160;2022-09-09T05:59:44;99545.00;;;24.61;61.24
26531;BME280;14201;43.188;24.160;2022-09-09T06:02:09;99542.47;;;24.50;62.49
26531;BME280;14201;43.188;24.160;2022-09-09T06:04:35;99535.38;;;25.03;60.69
26531;BME280;14201;43.188;24.160;2022-09-09T06:07:01;99533.19;;;25.27;59.36
26531;BME280;14201;43.188;24.160;2022-09-09T06:09:26;99543.56;;;25.42;58.66
26531;BME280;14201;43.188;24.160;2022-09-09T06:11:52;99542.66;;;25.85;56.29
26531;BME280;14201;43.188;24.160;2022-09-09T06:14:19;99546.66;;;26.08;57.15
26531;BME280;14201;43.188;24.160;2022-09-09T06:16:45;99544.28;;;26.33;55.74
26531;BME280;14201;43.188;24.160;2022-09-09T06:19:11;99545.63;;;26.51;55.08
26531;BME280;14201;43.188;24.160;2022-09-09T06:21:38;99552.94;;;26.80;53.72
26531;BME280;14201;43.188;24.160;2022-09-09T06:24:04;99549.91;;;26.94;54.71
26531;BME280;14201;43.188;24.160;2022-09-09T06:26:33;99546.75;;;27.13;52.21
26531;BME280;14201;43.188;24.160;2022-09-09T06:28:59;99551.63;;;27.31;52.38
26531;BME280;14201;43.188;24.160;2022-09-09T06:31:27;99561.72;;;27.53;52.90
26531;BME280;14201;43.188;24.160;2022-09-09T06:33:56;99555.97;;;27.98;48.45
26531;BME280;14201;43.188;24.160;2022-09-09T06:36:25;99553.50;;;28.20;48.89
26531;BME280;14201;43.188;24.160;2022-09-09T06:38:51;99544.72;;;28.43;46.23
26531;BME280;14201;43.188;24.160;2022-09-09T06:41:19;99540.75;;;28.56;46.38
26531;BME280;14201;43.188;24.160;2022-09-09T06:43:46;99549.09;;;28.74;44.97
26531;BME280;14201;43.188;24.160;2022-09-09T06:46:14;99546.72;;;28.91;45.61
26531;BME280;14201;43.188;24.160;2022-09-09T06:48:41;99540.97;;;29.02;42.96
26531;BME280;14201;43.188;24.160;2022-09-09T06:51:18;99540.81;;;29.06;42.04
26531;BME280;14201;43.188;24.160;2022-09-09T06:53:45;99535.13;;;29.16;40.81
26531;BME280;14201;43.188;24.160;2022-09-09T06:58:44;99537.53;;;29.49;41.83
26531;BME280;14201;43.188;24.160;2022-09-09T07:01:12;99540.84;;;29.80;41.79
26531;BME280;14201;43.188;24.160;2022-09-09T07:03:39;99544.22;;;30.09;41.84
26531;BME280;14201;43.188;24.160;2022-09-09T07:06:06;99552.00;;;30.39;42.58
26531;BME280;14201;43.188;24.160;2022-09-09T07:08:33;99553.38;;;30.49;42.33
26531;BME280;14201;43.188;24.160;2022-09-09T07:11:04;99547.69;;;30.35;38.84
26531;BME280;14201;43.188;24.160;2022-09-09T07:13:33;99542.31;;;30.35;39.53
26531;BME280;14201;43.188;24.160;2022-09-09T07:16:07;99549.66;;;30.74;39.25
26531;BME280;14201;43.188;24.160;2022-09-09T07:18:33;99557.31;;;30.85;40.88
26531;BME280;14201;43.188;24.160;2022-09-09T07:21:00;99556.34;;;30.19;40.15
26531;BME280;14201;43.188;24.160;2022-09-09T07:23:28;99555.84;;;30.10;40.02
26531;BME280;14201;43.188;24.160;2022-09-09T07:25:54;99560.41;;;30.30;39.49
26531;BME280;14201;43.188;24.160;2022-09-09T07:28:20;99552.00;;;30.39;40.87
26531;BME280;14201;43.188;24.160;2022-09-09T07:31:00;99549.09;;;29.99;41.19
26531;BME280;14201;43.188;24.160;2022-09-09T07:33:28;99554.63;;;29.95;39.35
26531;BME280;14201;43.188;24.160;2022-09-09T07:36:22;99556.03;;;30.27;39.66
26531;BME280;14201;43.188;24.160;2022-09-09T07:38:50;99540.88;;;30.48;40.23
26531;BME280;14201;43.188;24.160;2022-09-09T07:41:26;99548.09;;;30.68;39.55
26531;BME280;14201;43.188;24.160;2022-09-09T07:43:52;99545.31;;;30.71;38.41
26531;BME280;14201;43.188;24.160;2022-09-09T07:46:23;99546.72;;;31.02;38.99
26531;BME280;14201;43.188;24.160;2022-09-09T07:48:53;99546.78;;;31.00;37.23
26531;BME280;14201;43.188;24.160;2022-09-09T07:51:26;99542.88;;;31.28;37.77
26531;BME280;14201;43.188;24.160;2022-09-09T07:53:54;99552.34;;;31.37;38.94
26531;BME280;14201;43.188;24.160;2022-09-09T07:56:22;99546.81;;;31.40;40.32
26531;BME280;14201;43.188;24.160;2022-09-09T07:58:51;99544.19;;;31.59;37.90
26531;BME280;14201;43.188;24.160;2022-09-09T08:01:22;99541.78;;;31.53;37.92
26531;BME280;14201;43.188;24.160;2022-09-09T08:03:54;99538.41;;;31.68;37.40
26531;BME280;14201;43.188;24.160;2022-09-09T08:06:20;99535.97;;;32.02;37.74
26531;BME280;14201;43.188;24.160;2022-09-09T08:08:49;99530.19;;;32.28;37.57
26531;BME280;14201;43.188;24.160;2022-09-09T08:11:15;99533.13;;;32.41;36.57
26531;BME280;14201;43.188;24.160;2022-09-09T08:13:42;99546.88;;;32.54;35.84
26531;BME280;14201;43.188;24.160;2022-09-09T08:16:14;99542.41;;;32.72;35.29
26531;BME280;14201;43.188;24.160;2022-09-09T08:18:40;99543.19;;;33.09;35.57
26531;BME280;14201;43.188;24.160;2022-09-09T08:21:11;99532.84;;;33.52;36.06
26531;BME280;14201;43.188;24.160;2022-09-09T08:23:41;99535.50;;;33.36;36.23
26531;BME280;14201;43.188;24.160;2022-09-09T08:26:16;99522.00;;;33.01;34.98
26531;BME280;14201;43.188;24.160;2022-09-09T08:28:43;99529.09;;;32.86;35.33
26531;BME280;14201;43.188;24.160;2022-09-09T08:31:17;99532.09;;;33.15;34.17
26531;BME280;14201;43.188;24.160;2022-09-09T08:33:43;99525.38;;;33.24;33.85
26531;BME280;14201;43.188;24.160;2022-09-09T08:36:22;99517.59;;;33.00;34.91
26531;BME280;14201;43.188;24.160;2022-09-09T08:38:50;99523.03;;;33.33;34.74
26531;BME280;14201;43.188;24.160;2022-09-09T08:43:47;99520.38;;;33.83;34.03
26531;BME280;14201;43.188;24.160;2022-09-09T08:51:57;99523.97;;;33.99;33.44
26531;BME280;14201;43.188;24.160;2022-09-09T08:54:24;99535.84;;;34.12;32.76
26531;BME280;14201;43.188;24.160;2022-09-09T08:56:51;99525.66;;;34.34;32.79
26531;BME280;14201;43.188;24.160;2022-09-09T08:59:18;99525.19;;;34.09;32.90
26531;BME280;14201;43.188;24.160;2022-09-09T09:01:50;99526.56;;;33.85;32.76
26531;BME280;14201;43.188;24.160;2022-09-09T09:07:28;99524.22;;;33.79;33.55
26531;BME280;14201;43.188;24.160;2022-09-09T09:12:27;99522.06;;;33.85;33.36
26531;BME280;14201;43.188;24.160;2022-09-09T09:14:54;99522.34;;;33.30;34.18
26531;BME280;14201;43.188;24.160;2022-09-09T09:17:24;99507.88;;;33.31;34.04
26531;BME280;14201;43.188;24.160;2022-09-09T09:19:50;99511.00;;;33.23;34.61
26531;BME280;14201;43.188;24.160;2022-09-09T09:24:55;99515.16;;;33.80;33.21
26531;BME280;14201;43.188;24.160;2022-09-09T09:27:30;99504.06;;;33.68;33.60
26531;BME280;14201;43.188;24.160;2022-09-09T09:29:58;99516.38;;;33.90;32.86
26531;BME280;14201;43.188;24.160;2022-09-09T09:32:26;99514.56;;;33.57;33.84
26531;BME280;14201;43.188;24.160;2022-09-09T09:34:56;99515.22;;;33.29;33.93
26531;BME280;14201;43.188;24.160;2022-09-09T09:37:28;99505.66;;;33.55;33.38
26531;BME280;14201;43.188;24.160;2022-09-09T09:39:54;99504.13;;;33.33;35.07
26531;BME280;14201;43.188;24.160;2022-09-09T09:42:20;99511.84;;;33.57;34.65
26531;BME280;14201;43.188;24.160;2022-09-09T09:44:46;99513.44;;;34.26;34.57
26531;BME280;14201;43.188;24.160;2022-09-09T09:47:14;99511.44;;;34.76;33.71
26531;BME280;14201;43.188;24.160;2022-09-09T09:50:00;99510.34;;;35.09;32.22
26531;BME280;14201;43.188;24.160;2022-09-09T09:52:30;99501.09;;;34.68;31.57
26531;BME280;14201;43.188;24.160;2022-09-09T09:54:57;99509.66;;;34.13;30.92
26531;BME280;14201;43.188;24.160;2022-09-09T09:57:30;99508.16;;;34.71;31.72
26531;BME280;14201;43.188;24.160;2022-09-09T10:02:42;99515.44;;;35.44;31.52
26531;BME280;14201;43.188;24.160;2022-09-09T10:05:23;99514.28;;;35.62;30.79
26531;BME280;14201;43.188;24.160;2022-09-09T10:08:13;99512.72;;;35.44;31.89
26531;BME280;14201;43.188;24.160;2022-09-09T10:10:46;99504.47;;;34.72;31.86
26531;BME280;14201;43.188;24.160;2022-09-09T10:18:48;99507.78;;;35.36;31.68
26531;BME280;14201;43.188;24.160;2022-09-09T10:26:44;99500.09;;;36.15;31.51
26531;BME280;14201;43.188;24.160;2022-09-09T10:37:07;99500.38;;;35.83;31.14
26531;BME280;14201;43.188;24.160;2022-09-09T10:39:39;99503.94;;;35.40;31.03
26531;BME280;14201;43.188;24.160;2022-09-09T10:42:16;99492.78;;;36.02;31.44
26531;BME280;14201;43.188;24.160;2022-09-09T10:45:02;99496.47;;;35.15;31.58
26531;BME280;14201;43.188;24.160;2022-09-09T10:47:39;99497.75;;;34.63;33.00
26531;BME280;14201;43.188;24.160;2022-09-09T10:56:09;99503.50;;;35.03;34.01
26531;BME280;14201;43.188;24.160;2022-09-09T10:58:50;99500.16;;;35.28;35.53
26531;BME280;14201;43.188;24.160;2022-09-09T11:01:24;99503.94;;;35.55;34.18
26531;BME280;14201;43.188;24.160;2022-09-09T11:04:01;99514.13;;;35.80;33.82
26531;BME280;14201;43.188;24.160;2022-09-09T11:06:37;99515.47;;;35.87;33.96
26531;BME280;14201;43.188;24.160;2022-09-09T11:09:05;99513.44;;;35.91;33.25
26531;BME280;14201;43.188;24.160;2022-09-09T11:11:51;99508.78;;;35.78;33.52
26531;BME280;14201;43.188;24.160;2022-09-09T11:14:29;99507.72;;;35.81;33.78
26531;BME280;14201;43.188;24.160;2022-09-09T11:17:07;99514.47;;;35.88;33.79
26531;BME280;14201;43.188;24.160;2022-09-09T11:19:39;99511.91;;;35.72;34.19
26531;BME280;14201;43.188;24.160;2022-09-09T11:22:54;99520.03;;;35.58;34.62
26531;BME280;14201;43.188;24.160;2022-09-09T11:25:05;99520.69;;;35.33;35.07
26531;BME280;14201;43.188;24.160;2022-09-09T11:27:38;99514.50;;;35.31;35.40
26531;BME280;14201;43.188;24.160;2022-09-09T11:38:34;99510.94;;;35.00;36.00
26531;BME280;14201;43.188;24.160;2022-09-09T11:41:06;99509.72;;;34.89;36.44
26531;BME280;14201;43.188;24.160;2022-09-09T11:43:47;99500.91;;;34.56;36.74
26531;BME280;14201;43.188;24.160;2022-09-09T11:46:14;99503.88;;;34.67;36.65
26531;BME280;14201;43.188;24.160;2022-09-09T11:48:57;99498.53;;;34.65;36.92
26531;BME280;14201;43.188;24.160;2022-09-09T11:56:46;99499.84;;;34.58;36.61
26531;BME280;14201;43.188;24.160;2022-09-09T11:59:31;99492.25;;;34.65;36.39
26531;BME280;14201;43.188;24.160;2022-09-09T12:02:22;99500.13;;;34.69;36.97
26531;BME280;14201;43.188;24.160;2022-09-09T12:09:58;99493.41;;;34.61;37.31
26531;BME280;14201;43.188;24.160;2022-09-09T12:12:34;99490.25;;;34.52;36.58
26531;BME280;14201;43.188;24.160;2022-09-09T12:17:44;99481.91;;;34.41;37.09
26531;BME280;14201;43.188;24.160;2022-09-09T12:20:19;99480.72;;;34.31;37.58
26531;BME280;14201;43.188;24.160;2022-09-09T12:28:22;99486.47;;;34.25;38.00
26531;BME280;14201;43.188;24.160;2022-09-09T12:30:57;99481.41;;;34.03;38.44
26531;BME280;14201;43.188;24.160;2022-09-09T12:33:24;99480.78;;;34.13;38.79
26531;BME280;14201;43.188;24.160;2022-09-09T12:35:56;99482.72;;;33.96;38.81
26531;BME280;14201;43.188;24.160;2022-09-09T12:38:29;99487.63;;;33.89;39.46
26531;BME280;14201;43.188;24.160;2022-09-09T12:40:57;99475.47;;;33.80;39.82
26531;BME280;14201;43.188;24.160;2022-09-09T12:43:23;99470.50;;;33.72;39.59
26531;BME280;14201;43.188;24.160;2022-09-09T12:45:49;99474.78;;;33.77;39.57
26531;BME280;14201;43.188;24.160;2022-09-09T12:48:21;99473.38;;;33.69;39.70
26531;BME280;14201;43.188;24.160;2022-09-09T12:50:50;99472.59;;;33.67;39.79
26531;BME280;14201;43.188;24.160;2022-09-09T12:53:22;99474.03;;;33.57;39.84
26531;BME280;14201;43.188;24.160;2022-09-09T12:55:59;99480.22;;;33.59;40.20
26531;BME280;14201;43.188;24.160;2022-09-09T12:58:25;99476.34;;;33.65;40.92
26531;BME280;14201;43.188;24.160;2022-09-09T13:00:54;99480.31;;;33.58;40.66
26531;BME280;14201;43.188;24.160;2022-09-09T13:03:22;99486.91;;;33.52;40.45
26531;BME280;14201;43.188;24.160;2022-09-09T13:05:48;99484.75;;;33.43;40.47
26531;BME280;14201;43.188;24.160;2022-09-09T13:08:15;99477.13;;;33.33;40.53
26531;BME280;14201;43.188;24.160;2022-09-09T13:10:51;99482.50;;;33.18;41.39
26531;BME280;14201;43.188;24.160;2022-09-09T13:13:23;99475.19;;;33.20;41.52
26531;BME280;14201;43.188;24.160;2022-09-09T13:15:50;99480.81;;;33.15;41.77
26531;BME280;14201;43.188;24.160;2022-09-09T13:18:16;99474.63;;;33.13;42.33
26531;BME280;14201;43.188;24.160;2022-09-09T13:20:47;99465.97;;;33.06;42.17
26531;BME280;14201;43.188;24.160;2022-09-09T13:23:13;99465.41;;;33.00;42.94
26531;BME280;14201;43.188;24.160;2022-09-09T13:25:39;99455.66;;;32.97;43.13
26531;BME280;14201;43.188;24.160;2022-09-09T13:28:05;99459.47;;;32.93;43.11
26531;BME280;14201;43.188;24.160;2022-09-09T13:35:51;99439.28;;;32.67;44.12
26531;BME280;14201;43.188;24.160;2022-09-09T13:38:18;99431.31;;;32.64;44.31
26531;BME280;14201;43.188;24.160;2022-09-09T13:43:27;99434.47;;;32.54;44.17
26531;BME280;14201;43.188;24.160;2022-09-09T13:46:00;99430.09;;;32.52;43.91
26531;BME280;14201;43.188;24.160;2022-09-09T13:48:26;99437.03;;;32.58;44.59
26531;BME280;14201;43.188;24.160;2022-09-09T13:50:56;99433.22;;;32.62;45.21
26531;BME280;14201;43.188;24.160;2022-09-09T13:53:22;99439.28;;;32.67;44.95
26531;BME280;14201;43.188;24.160;2022-09-09T13:55:47;99428.88;;;32.76;45.11
26531;BME280;14201;43.188;24.160;2022-09-09T13:58:16;99433.75;;;32.86;43.85
26531;BME280;14201;43.188;24.160;2022-09-09T14:00:44;99425.44;;;32.90;43.38
26531;BME280;14201;43.188;24.160;2022-09-09T14:03:09;99436.94;;;32.94;44.03
26531;BME280;14201;43.188;24.160;2022-09-09T14:05:35;99430.16;;;33.03;43.82
26531;BME280;14201;43.188;24.160;2022-09-09T14:08:02;99430.41;;;33.15;42.72
26531;BME280;14201;43.188;24.160;2022-09-09T14:10:28;99430.16;;;33.20;42.91
26531;BME280;14201;43.188;24.160;2022-09-09T14:12:54;99425.47;;;33.24;42.89
26531;BME280;14201;43.188;24.160;2022-09-09T14:15:19;99424.84;;;33.34;42.59
26531;BME280;14201;43.188;24.160;2022-09-09T14:17:45;99420.16;;;33.38;42.21
26531;BME280;14201;43.188;24.160;2022-09-09T14:20:10;99428.03;;;33.43;41.40
26531;BME280;14201;43.188;24.160;2022-09-09T14:22:37;99421.66;;;33.44;40.26
26531;BME280;14201;43.188;24.160;2022-09-09T14:25:04;99428.88;;;33.43;40.00
26531;BME280;14201;43.188;24.160;2022-09-09T14:27:30;99426.44;;;33.39;39.00
26531;BME280;14201;43.188;24.160;2022-09-09T14:29:55;99434.88;;;33.32;39.18
26531;BME280;14201;43.188;24.160;2022-09-09T14:32:22;99434.19;;;33.29;38.32
26531;BME280;14201;43.188;24.160;2022-09-09T14:34:48;99429.03;;;33.24;38.96
26531;BME280;14201;43.188;24.160;2022-09-09T14:37:16;99431.13;;;33.19;38.85
26531;BME280;14201;43.188;24.160;2022-09-09T14:39:42;99423.53;;;33.10;38.35
26531;BME280;14201;43.188;24.160;2022-09-09T14:42:09;99428.50;;;33.00;38.59
26531;BME280;14201;43.188;24.160;2022-09-09T14:44:36;99417.72;;;33.00;39.66
26531;BME280;14201;43.188;24.160;2022-09-09T14:47:03;99424.66;;;32.88;40.02
26531;BME280;14201;43.188;24.160;2022-09-09T14:49:29;99418.53;;;32.85;40.65
26531;BME280;14201;43.188;24.160;2022-09-09T14:51:54;99421.31;;;32.83;39.25
26531;BME280;14201;43.188;24.160;2022-09-09T14:54:20;99419.78;;;32.25;40.77
26531;BME280;14201;43.188;24.160;2022-09-09T14:56:47;99420.94;;;32.02;41.47
26531;BME280;14201;43.188;24.160;2022-09-09T14:59:13;99425.28;;;32.05;42.03